»·PEaware :: DHK46 KPDX-KSFO

DHK46 :: KPDX-KSFO

FLIGHT INFORMATION

Flight Status: Arrived
Operator:
DHL Air
More flights by this operator :: More flights under this callsign
Pilot: Ross C. (19908)
Aircraft: BOEING 757-200
(B752)
More flights by this aircraft type
Origin: KPDX Portland Intl
United States
Destination: KSFO San Francisco Intl
United States
More flights between these airports :: More routes between these airports
Route: +MINNE5 FAMUK Q3 FOWND MLBEC BDEGA2
File this flight plan on PilotEdge
Remarks: PBN / A1B3B4B5C4D4O4 DOF / 180728 REG / N538SB EET / KZOA0041 OPR / DHK PER / D RMK / TCAS SIMBRIEF
Altitude:
(Current/Filed)
37,000ft
Speed:
(Current/Filed)
461kts
Departed: 28-Jul-18 09:46 AM
Arrived: 28-Jul-18 11:19 AM
Distance/Time
Traveled:
478nm/1:33
Distance/Time
To Go:
Arrived

Flight Plot

Page will automatically refresh every two minutes.


Map Options




Map Legend


Flown Route
Filed Route
Departure Airport
Arrival Airport
Navaid (VOR, NDB)
Fix

Horizontal Profiles

Position Reports

Time Latitude Longitude Heading Altitude Ground
Speed
28-Jul-18 09:07 45.582543 -122.611228 44 40ft 0kts
28-Jul-18 09:08 45.582543 -122.611228 44 40ft 0kts
28-Jul-18 09:09 45.582543 -122.611228 44 40ft 0kts
28-Jul-18 09:10 45.582543 -122.611228 44 40ft 0kts
28-Jul-18 09:11 45.582543 -122.611228 44 40ft 0kts
28-Jul-18 09:12 45.582543 -122.611228 44 40ft 0kts
28-Jul-18 09:13 45.582543 -122.611228 44 40ft 0kts
28-Jul-18 09:14 45.582543 -122.611228 44 40ft 0kts
28-Jul-18 09:15 45.582543 -122.611228 44 40ft 0kts
28-Jul-18 09:16 45.582543 -122.611228 44 40ft 0kts
28-Jul-18 09:17 45.582543 -122.611228 44 40ft 0kts
28-Jul-18 09:18 45.582543 -122.611228 44 40ft 0kts
28-Jul-18 09:19 45.582543 -122.611228 44 40ft 0kts
28-Jul-18 09:20 45.582543 -122.611228 44 40ft 0kts
28-Jul-18 09:21 45.582543 -122.611228 44 40ft 0kts
28-Jul-18 09:22 45.582543 -122.611228 44 40ft 0kts
28-Jul-18 09:23 45.582543 -122.611228 44 40ft 0kts
28-Jul-18 09:24 45.582543 -122.611228 44 40ft 0kts
28-Jul-18 09:25 45.582543 -122.611228 44 40ft 0kts
28-Jul-18 09:26 45.582543 -122.611228 44 40ft 0kts
28-Jul-18 09:27 45.582543 -122.611228 44 40ft 0kts
28-Jul-18 09:28 45.582543 -122.611228 44 40ft 0kts
28-Jul-18 09:29 45.582543 -122.611228 44 40ft 0kts
28-Jul-18 09:30 45.582543 -122.611228 44 40ft 0kts
28-Jul-18 09:31 45.582543 -122.611228 44 40ft 0kts
28-Jul-18 09:32 45.582447 -122.611366 44 40ft 2kts
28-Jul-18 09:33 45.582054 -122.611834 18 41ft 2kts
28-Jul-18 09:34 45.581553 -122.611742 323 41ft 2kts
28-Jul-18 09:35 45.581445 -122.611600 314 40ft 0kts
28-Jul-18 09:36 45.581445 -122.611600 314 40ft 0kts
28-Jul-18 09:37 45.581445 -122.611600 314 40ft 0kts
28-Jul-18 09:38 45.581445 -122.611601 314 40ft 0kts
28-Jul-18 09:39 45.581974 -122.612364 314 40ft 6kts
28-Jul-18 09:40 45.583482 -122.613137 42 40ft 8kts
28-Jul-18 09:41 45.586070 -122.609421 44 40ft 27kts
28-Jul-18 09:42 45.586691 -122.602951 118 40ft 40kts
28-Jul-18 09:43 45.582060 -122.591034 118 40ft 33kts
28-Jul-18 09:44 45.579794 -122.584962 77 40ft 0kts
28-Jul-18 09:45 45.579794 -122.584962 77 40ft 0kts
28-Jul-18 09:46 45.580902 -122.584933 295 40ft 2kts
28-Jul-18 09:47 45.588314 -122.603953 300 195ft 168kts
28-Jul-18 09:48 45.611958 -122.659895 297 2999ft 170kts
28-Jul-18 09:49 45.636935 -122.718438 298 5262ft 176kts
28-Jul-18 09:50 45.663001 -122.785702 298 6924ft 219kts
28-Jul-18 09:51 45.662351 -122.880953 245 8969ft 276kts
28-Jul-18 09:52 45.593658 -122.922523 188 11631ft 291kts
28-Jul-18 09:53 45.513193 -122.933368 188 14238ft 293kts
28-Jul-18 09:54 45.430313 -122.943216 188 16804ft 315kts
28-Jul-18 09:55 45.332399 -122.952878 188 18656ft 375kts
28-Jul-18 09:56 45.232431 -122.965912 189 21114ft 394kts
28-Jul-18 09:57 45.133781 -122.986546 193 23135ft 404kts
28-Jul-18 09:58 45.027400 -123.011277 194 23127ft 401kts
28-Jul-18 09:59 44.916818 -123.037611 194 23921ft 409kts
28-Jul-18 10:00 44.876511 -123.047223 193 24759ft 415kts
28-Jul-18 10:01 44.774906 -123.069981 193 26761ft 426kts
28-Jul-18 10:02 44.660868 -123.096091 194 28704ft 437kts
28-Jul-18 10:03 44.519598 -123.128581 194 30778ft 449kts
28-Jul-18 10:04 44.393584 -123.130327 185 32697ft 456kts
28-Jul-18 10:05 44.268586 -123.125609 185 34778ft 445kts
28-Jul-18 10:06 44.166528 -123.122514 185 36065ft 441kts
28-Jul-18 10:07 44.044130 -123.117779 184 37108ft 441kts
28-Jul-18 10:08 43.921919 -123.112558 185 37124ft 439kts
28-Jul-18 10:09 43.811885 -123.108878 185 37130ft 440kts
28-Jul-18 10:10 43.691140 -123.104988 185 37129ft 440kts
28-Jul-18 10:11 43.570474 -123.100984 185 37115ft 441kts
28-Jul-18 10:12 43.448187 -123.096326 185 37101ft 441kts
28-Jul-18 10:13 43.349248 -123.092853 185 37101ft 444kts
28-Jul-18 10:14 43.233387 -123.089590 185 37099ft 441kts
28-Jul-18 10:15 43.117327 -123.086009 185 37099ft 442kts
28-Jul-18 10:16 42.999729 -123.081136 185 37098ft 442kts
28-Jul-18 10:17 42.886947 -123.076313 185 37101ft 443kts
28-Jul-18 10:18 42.765269 -123.071727 185 37127ft 442kts
28-Jul-18 10:19 42.647579 -123.067681 185 37209ft 441kts
28-Jul-18 10:20 42.556000 -123.064601 185 37188ft 441kts
28-Jul-18 10:21 42.466426 -123.062613 186 37117ft 440kts
28-Jul-18 10:22 42.359610 -123.060275 185 37101ft 440kts
28-Jul-18 10:23 42.245911 -123.055909 185 37100ft 440kts
28-Jul-18 10:24 42.154807 -123.052806 185 37099ft 439kts
28-Jul-18 10:25 42.049437 -123.049381 185 37099ft 439kts
28-Jul-18 10:26 41.933640 -123.045653 185 37097ft 438kts
28-Jul-18 10:27 41.837092 -123.042574 185 37104ft 438kts
28-Jul-18 10:28 41.718744 -123.038815 185 37129ft 437kts
28-Jul-18 10:29 41.613185 -123.035475 185 37130ft 437kts
28-Jul-18 10:30 41.499186 -123.032431 185 37129ft 437kts
28-Jul-18 10:31 41.378907 -123.029197 185 37125ft 436kts
28-Jul-18 10:32 41.262673 -123.024868 184 37074ft 436kts
28-Jul-18 10:33 41.148564 -123.020704 184 37072ft 436kts
28-Jul-18 10:34 41.032258 -123.018123 185 37071ft 434kts
28-Jul-18 10:35 40.911796 -123.015051 185 37070ft 434kts
28-Jul-18 10:36 40.805850 -123.011963 185 37077ft 434kts
28-Jul-18 10:37 40.689659 -123.008513 185 37077ft 433kts
28-Jul-18 10:38 40.576355 -123.005001 184 37076ft 433kts
28-Jul-18 10:39 40.459580 -123.000681 184 37075ft 433kts
28-Jul-18 10:40 40.344984 -122.997152 184 36976ft 432kts
28-Jul-18 10:41 40.225371 -122.993609 184 36965ft 432kts
28-Jul-18 10:42 40.107570 -122.990328 184 36964ft 431kts
28-Jul-18 10:43 39.988423 -122.986702 184 36963ft 431kts
28-Jul-18 10:44 39.915282 -122.984561 183 36963ft 429kts
28-Jul-18 10:45 39.804411 -122.980914 184 36970ft 428kts
28-Jul-18 10:46 39.686322 -122.977839 183 36969ft 428kts
28-Jul-18 10:47 39.568000 -122.973668 183 36983ft 428kts
28-Jul-18 10:48 39.460022 -122.970286 183 36994ft 427kts
28-Jul-18 10:49 39.341700 -122.968705 184 36993ft 427kts
28-Jul-18 10:50 39.226179 -122.965072 184 36984ft 393kts
28-Jul-18 10:51 39.116725 -122.962622 184 36904ft 398kts
28-Jul-18 10:52 39.009639 -122.960435 183 34902ft 394kts
28-Jul-18 10:53 38.901805 -122.957650 180 32904ft 401kts
28-Jul-18 10:54 38.824232 -122.941739 170 31503ft 414kts
28-Jul-18 10:55 38.712356 -122.909642 170 31034ft 416kts
28-Jul-18 10:56 38.599173 -122.921058 193 29324ft 414kts
28-Jul-18 10:57 38.491046 -122.902272 155 26457ft 420kts
28-Jul-18 10:58 38.394515 -122.825229 162 23519ft 403kts
28-Jul-18 10:59 38.290188 -122.786724 168 23135ft 381kts
28-Jul-18 11:00 38.198165 -122.758967 169 23126ft 368kts
28-Jul-18 11:01 38.098033 -122.729715 169 23155ft 392kts
28-Jul-18 11:02 37.999136 -122.700798 169 23163ft 401kts
28-Jul-18 11:03 37.905427 -122.672040 159 22026ft 359kts
28-Jul-18 11:04 37.829905 -122.599042 141 16994ft 359kts
28-Jul-18 11:05 37.758340 -122.523350 140 11282ft 358kts
28-Jul-18 11:06 37.690481 -122.451303 139 7424ft 315kts
28-Jul-18 11:07 37.632938 -122.390157 140 6485ft 273kts
28-Jul-18 11:08 37.582040 -122.346313 148 6961ft 251kts
28-Jul-18 11:09 37.527862 -122.304039 148 6976ft 232kts
28-Jul-18 11:10 37.470642 -122.259918 148 6982ft 261kts
28-Jul-18 11:11 37.424767 -122.198209 103 6120ft 252kts
28-Jul-18 11:12 37.411999 -122.115678 74 4011ft 244kts
28-Jul-18 11:13 37.444536 -122.047969 22 4012ft 231kts
28-Jul-18 11:14 37.496869 -122.079091 298 4013ft 231kts
28-Jul-18 11:15 37.525103 -122.147181 298 3725ft 237kts
28-Jul-18 11:16 37.555911 -122.220217 299 2476ft 244kts
28-Jul-18 11:17 37.586132 -122.291891 300 1204ft 211kts
28-Jul-18 11:18 37.607290 -122.342372 303 294ft 128kts
28-Jul-18 11:19 37.621690 -122.376515 298 28ft 70kts
28-Jul-18 11:20 37.622235 -122.380479 275 33ft 3kts
28-Jul-18 11:21 37.620634 -122.383402 199 34ft 0kts
28-Jul-18 11:22 37.620549 -122.383439 199 35ft 0kts
28-Jul-18 11:23 37.619742 -122.386484 268 34ft 8kts
28-Jul-18 11:24 37.619738 -122.386654 268 34ft 0kts

Navigation Log

Ident Type
1. KPDX Airport
2. RIVRR Fix
3. COSUG Fix
4. BISLE Fix
5. MINNE Fix
6. FAMUK Fix
7. FAMUK Navaid
8. FRFLY Navaid
9. FINER Navaid
10. FOWND Navaid
11. MLBEC Fix
12. JONNE Fix
13. BGGLO Fix
14. LOZIT Fix
15. BDEGA Fix
16. CORKK Fix
17. BRIXX Fix
18. KSFO Airport